sensor_id;sensor_type;location;lat;lon;timestamp;P1;durP1;ratioP1;P2;durP2;ratioP2
62401;SDS011;48440;51.224;22.506;2023-02-15T00:01:10;127.05;;;36.17;;
62401;SDS011;48440;51.224;22.506;2023-02-15T00:03:36;133.30;;;35.75;;
62401;SDS011;48440;51.224;22.506;2023-02-15T00:06:02;118.38;;;34.33;;
62401;SDS011;48440;51.224;22.506;2023-02-15T00:08:28;121.22;;;37.05;;
62401;SDS011;48440;51.224;22.506;2023-02-15T00:11:02;114.07;;;35.72;;
62401;SDS011;48440;51.224;22.506;2023-02-15T00:13:31;114.72;;;34.42;;
62401;SDS011;48440;51.224;22.506;2023-02-15T00:16:04;125.05;;;35.08;;
62401;SDS011;48440;51.224;22.506;2023-02-15T00:18:33;109.82;;;34.40;;
62401;SDS011;48440;51.224;22.506;2023-02-15T00:21:02;123.30;;;34.85;;
62401;SDS011;48440;51.224;22.506;2023-02-15T00:23:29;106.88;;;32.70;;
62401;SDS011;48440;51.224;22.506;2023-02-15T00:26:13;106.28;;;33.67;;
62401;SDS011;48440;51.224;22.506;2023-02-15T00:28:38;107.05;;;33.88;;
62401;SDS011;48440;51.224;22.506;2023-02-15T00:33:29;122.80;;;35.92;;
62401;SDS011;48440;51.224;22.506;2023-02-15T00:35:58;114.72;;;33.72;;
62401;SDS011;48440;51.224;22.506;2023-02-15T00:38:26;118.68;;;33.30;;
62401;SDS011;48440;51.224;22.506;2023-02-15T00:40:53;113.20;;;35.33;;
62401;SDS011;48440;51.224;22.506;2023-02-15T00:43:20;130.32;;;35.53;;
62401;SDS011;48440;51.224;22.506;2023-02-15T00:45:45;132.98;;;37.45;;
62401;SDS011;48440;51.224;22.506;2023-02-15T00:48:11;130.00;;;35.45;;
62401;SDS011;48440;51.224;22.506;2023-02-15T00:50:37;137.55;;;37.22;;
62401;SDS011;48440;51.224;22.506;2023-02-15T00:53:02;140.75;;;37.67;;
62401;SDS011;48440;51.224;22.506;2023-02-15T00:55:28;143.90;;;37.47;;
62401;SDS011;48440;51.224;22.506;2023-02-15T00:57:53;148.27;;;39.03;;
62401;SDS011;48440;51.224;22.506;2023-02-15T01:00:18;153.60;;;40.17;;
62401;SDS011;48440;51.224;22.506;2023-02-15T01:02:44;152.70;;;38.38;;
62401;SDS011;48440;51.224;22.506;2023-02-15T01:05:09;127.28;;;37.17;;
62401;SDS011;48440;51.224;22.506;2023-02-15T01:07:35;139.43;;;39.20;;
62401;SDS011;48440;51.224;22.506;2023-02-15T01:10:00;122.90;;;36.85;;
62401;SDS011;48440;51.224;22.506;2023-02-15T01:12:26;133.65;;;37.10;;
62401;SDS011;48440;51.224;22.506;2023-02-15T01:14:51;133.38;;;36.20;;
62401;SDS011;48440;51.224;22.506;2023-02-15T01:17:17;121.57;;;35.50;;
62401;SDS011;48440;51.224;22.506;2023-02-15T01:19:42;128.38;;;35.47;;
62401;SDS011;48440;51.224;22.506;2023-02-15T01:22:08;117.13;;;35.72;;
62401;SDS011;48440;51.224;22.506;2023-02-15T01:24:33;128.75;;;34.28;;
62401;SDS011;48440;51.224;22.506;2023-02-15T01:26:58;120.88;;;35.78;;
62401;SDS011;48440;51.224;22.506;2023-02-15T01:29:24;112.68;;;33.65;;
62401;SDS011;48440;51.224;22.506;2023-02-15T01:31:50;112.43;;;34.80;;
62401;SDS011;48440;51.224;22.506;2023-02-15T01:34:15;123.00;;;34.58;;
62401;SDS011;48440;51.224;22.506;2023-02-15T01:36:41;123.72;;;35.63;;
62401;SDS011;48440;51.224;22.506;2023-02-15T01:39:06;117.60;;;34.42;;
62401;SDS011;48440;51.224;22.506;2023-02-15T01:41:32;121.70;;;35.83;;
62401;SDS011;48440;51.224;22.506;2023-02-15T01:43:59;120.32;;;35.03;;
62401;SDS011;48440;51.224;22.506;2023-02-15T01:46:40;117.03;;;33.80;;
62401;SDS011;48440;51.224;22.506;2023-02-15T01:49:17;116.80;;;33.10;;
62401;SDS011;48440;51.224;22.506;2023-02-15T01:51:46;103.28;;;31.38;;
62401;SDS011;48440;51.224;22.506;2023-02-15T01:56:39;118.40;;;33.47;;
62401;SDS011;48440;51.224;22.506;2023-02-15T01:59:08;112.47;;;32.53;;
62401;SDS011;48440;51.224;22.506;2023-02-15T02:04:08;123.22;;;33.20;;
62401;SDS011;48440;51.224;22.506;2023-02-15T02:06:41;112.93;;;34.28;;
62401;SDS011;48440;51.224;22.506;2023-02-15T02:09:06;109.22;;;34.65;;
62401;SDS011;48440;51.224;22.506;2023-02-15T02:11:32;113.60;;;33.95;;
62401;SDS011;48440;51.224;22.506;2023-02-15T02:13:59;123.25;;;34.35;;
62401;SDS011;48440;51.224;22.506;2023-02-15T02:24:23;118.03;;;34.38;;
62401;SDS011;48440;51.224;22.506;2023-02-15T02:34:48;135.40;;;36.30;;
62401;SDS011;48440;51.224;22.506;2023-02-15T02:40:22;126.97;;;35.00;;
62401;SDS011;48440;51.224;22.506;2023-02-15T02:42:56;131.13;;;35.25;;
62401;SDS011;48440;51.224;22.506;2023-02-15T02:45:51;118.38;;;34.17;;
62401;SDS011;48440;51.224;22.506;2023-02-15T02:48:22;120.95;;;33.13;;
62401;SDS011;48440;51.224;22.506;2023-02-15T02:50:51;132.30;;;35.15;;
62401;SDS011;48440;51.224;22.506;2023-02-15T02:53:17;118.63;;;34.78;;
62401;SDS011;48440;51.224;22.506;2023-02-15T02:55:59;120.43;;;33.15;;
62401;SDS011;48440;51.224;22.506;2023-02-15T02:58:47;113.25;;;30.63;;
62401;SDS011;48440;51.224;22.506;2023-02-15T03:01:20;125.05;;;34.50;;
62401;SDS011;48440;51.224;22.506;2023-02-15T03:03:57;126.03;;;36.17;;
62401;SDS011;48440;51.224;22.506;2023-02-15T03:06:33;129.00;;;34.67;;
62401;SDS011;48440;51.224;22.506;2023-02-15T03:09:01;135.25;;;32.78;;
62401;SDS011;48440;51.224;22.506;2023-02-15T03:11:40;119.85;;;31.83;;
62401;SDS011;48440;51.224;22.506;2023-02-15T03:14:07;118.88;;;34.78;;
62401;SDS011;48440;51.224;22.506;2023-02-15T03:16:33;117.93;;;31.75;;
62401;SDS011;48440;51.224;22.506;2023-02-15T03:21:51;126.13;;;32.83;;
62401;SDS011;48440;51.224;22.506;2023-02-15T03:24:34;114.57;;;31.40;;
62401;SDS011;48440;51.224;22.506;2023-02-15T03:27:03;114.88;;;32.85;;
62401;SDS011;48440;51.224;22.506;2023-02-15T03:29:32;111.30;;;30.05;;
62401;SDS011;48440;51.224;22.506;2023-02-15T03:32:00;116.53;;;31.92;;
62401;SDS011;48440;51.224;22.506;2023-02-15T03:34:28;107.05;;;30.65;;
62401;SDS011;48440;51.224;22.506;2023-02-15T03:39:59;101.50;;;29.95;;
62401;SDS011;48440;51.224;22.506;2023-02-15T03:45:17;107.10;;;29.45;;
62401;SDS011;48440;51.224;22.506;2023-02-15T03:47:50;102.95;;;31.02;;
62401;SDS011;48440;51.224;22.506;2023-02-15T03:50:20;108.93;;;31.90;;
62401;SDS011;48440;51.224;22.506;2023-02-15T03:53:10;117.20;;;30.08;;
62401;SDS011;48440;51.224;22.506;2023-02-15T03:55:38;107.00;;;30.80;;
62401;SDS011;48440;51.224;22.506;2023-02-15T03:58:04;116.65;;;32.00;;
62401;SDS011;48440;51.224;22.506;2023-02-15T04:00:57;110.50;;;29.75;;
62401;SDS011;48440;51.224;22.506;2023-02-15T04:06:10;87.50;;;27.80;;
62401;SDS011;48440;51.224;22.506;2023-02-15T04:08:35;104.30;;;28.30;;
62401;SDS011;48440;51.224;22.506;2023-02-15T04:13:45;75.57;;;23.80;;
62401;SDS011;48440;51.224;22.506;2023-02-15T04:16:10;90.10;;;25.85;;
62401;SDS011;48440;51.224;22.506;2023-02-15T04:18:39;81.57;;;26.83;;
62401;SDS011;48440;51.224;22.506;2023-02-15T04:21:26;78.85;;;25.42;;
62401;SDS011;48440;51.224;22.506;2023-02-15T04:24:12;91.85;;;26.38;;
62401;SDS011;48440;51.224;22.506;2023-02-15T04:29:22;81.32;;;24.98;;
62401;SDS011;48440;51.224;22.506;2023-02-15T04:31:49;90.68;;;26.25;;
62401;SDS011;48440;51.224;22.506;2023-02-15T04:34:15;86.45;;;26.02;;
62401;SDS011;48440;51.224;22.506;2023-02-15T04:36:40;94.97;;;28.30;;
62401;SDS011;48440;51.224;22.506;2023-02-15T04:39:06;83.65;;;26.05;;
62401;SDS011;48440;51.224;22.506;2023-02-15T04:41:33;99.97;;;29.73;;
62401;SDS011;48440;51.224;22.506;2023-02-15T04:43:59;95.93;;;26.65;;
62401;SDS011;48440;51.224;22.506;2023-02-15T04:46:26;101.75;;;29.08;;
62401;SDS011;48440;51.224;22.506;2023-02-15T04:48:52;108.70;;;31.75;;
62401;SDS011;48440;51.224;22.506;2023-02-15T04:51:18;104.15;;;29.33;;
62401;SDS011;48440;51.224;22.506;2023-02-15T04:53:44;96.97;;;27.85;;
62401;SDS011;48440;51.224;22.506;2023-02-15T04:56:09;87.80;;;27.27;;
62401;SDS011;48440;51.224;22.506;2023-02-15T04:58:35;95.90;;;29.05;;
62401;SDS011;48440;51.224;22.506;2023-02-15T05:01:01;109.28;;;29.55;;
62401;SDS011;48440;51.224;22.506;2023-02-15T05:03:27;111.18;;;29.02;;
62401;SDS011;48440;51.224;22.506;2023-02-15T05:05:52;112.22;;;28.50;;
62401;SDS011;48440;51.224;22.506;2023-02-15T05:08:18;106.68;;;28.55;;
62401;SDS011;48440;51.224;22.506;2023-02-15T05:10:43;98.53;;;28.25;;
62401;SDS011;48440;51.224;22.506;2023-02-15T05:13:09;90.45;;;26.17;;
62401;SDS011;48440;51.224;22.506;2023-02-15T05:15:34;94.63;;;27.48;;
62401;SDS011;48440;51.224;22.506;2023-02-15T05:18:01;84.72;;;26.40;;
62401;SDS011;48440;51.224;22.506;2023-02-15T05:20:26;103.35;;;28.17;;
62401;SDS011;48440;51.224;22.506;2023-02-15T05:22:55;89.43;;;28.80;;
62401;SDS011;48440;51.224;22.506;2023-02-15T05:25:21;93.90;;;27.48;;
62401;SDS011;48440;51.224;22.506;2023-02-15T05:28:05;92.07;;;26.92;;
62401;SDS011;48440;51.224;22.506;2023-02-15T05:30:45;100.95;;;26.83;;
62401;SDS011;48440;51.224;22.506;2023-02-15T05:33:11;95.53;;;28.55;;
62401;SDS011;48440;51.224;22.506;2023-02-15T05:35:37;104.25;;;29.35;;
62401;SDS011;48440;51.224;22.506;2023-02-15T05:38:02;88.75;;;26.63;;
62401;SDS011;48440;51.224;22.506;2023-02-15T05:40:28;102.80;;;29.05;;
62401;SDS011;48440;51.224;22.506;2023-02-15T05:42:53;100.82;;;27.90;;
62401;SDS011;48440;51.224;22.506;2023-02-15T05:45:19;92.82;;;28.35;;
62401;SDS011;48440;51.224;22.506;2023-02-15T05:47:44;117.45;;;29.88;;
62401;SDS011;48440;51.224;22.506;2023-02-15T05:50:10;114.03;;;31.52;;
62401;SDS011;48440;51.224;22.506;2023-02-15T05:52:36;130.65;;;33.88;;
62401;SDS011;48440;51.224;22.506;2023-02-15T05:55:02;124.25;;;32.25;;
62401;SDS011;48440;51.224;22.506;2023-02-15T05:57:29;118.43;;;33.13;;
62401;SDS011;48440;51.224;22.506;2023-02-15T05:59:55;120.30;;;33.08;;
62401;SDS011;48440;51.224;22.506;2023-02-15T06:02:20;133.13;;;33.38;;
62401;SDS011;48440;51.224;22.506;2023-02-15T06:04:45;117.85;;;31.10;;
62401;SDS011;48440;51.224;22.506;2023-02-15T06:07:11;114.35;;;31.40;;
62401;SDS011;48440;51.224;22.506;2023-02-15T06:09:36;107.43;;;29.48;;
62401;SDS011;48440;51.224;22.506;2023-02-15T06:12:02;106.45;;;30.77;;
62401;SDS011;48440;51.224;22.506;2023-02-15T06:14:27;116.22;;;29.92;;
62401;SDS011;48440;51.224;22.506;2023-02-15T06:16:53;103.47;;;28.90;;
62401;SDS011;48440;51.224;22.506;2023-02-15T06:19:18;100.35;;;29.73;;
62401;SDS011;48440;51.224;22.506;2023-02-15T06:21:44;101.93;;;28.50;;
62401;SDS011;48440;51.224;22.506;2023-02-15T06:24:09;108.00;;;31.63;;
62401;SDS011;48440;51.224;22.506;2023-02-15T06:26:35;99.32;;;28.48;;
62401;SDS011;48440;51.224;22.506;2023-02-15T06:29:00;97.00;;;28.17;;
62401;SDS011;48440;51.224;22.506;2023-02-15T06:31:26;98.20;;;27.60;;
62401;SDS011;48440;51.224;22.506;2023-02-15T06:33:51;98.43;;;28.25;;
62401;SDS011;48440;51.224;22.506;2023-02-15T06:36:17;93.70;;;27.98;;
62401;SDS011;48440;51.224;22.506;2023-02-15T06:38:42;88.88;;;26.38;;
62401;SDS011;48440;51.224;22.506;2023-02-15T06:41:08;91.97;;;26.98;;
62401;SDS011;48440;51.224;22.506;2023-02-15T06:43:33;91.47;;;26.83;;
62401;SDS011;48440;51.224;22.506;2023-02-15T06:45:59;91.43;;;26.17;;
62401;SDS011;48440;51.224;22.506;2023-02-15T06:48:25;85.40;;;25.88;;
62401;SDS011;48440;51.224;22.506;2023-02-15T06:50:51;91.00;;;26.80;;
62401;SDS011;48440;51.224;22.506;2023-02-15T06:53:16;92.72;;;27.80;;
62401;SDS011;48440;51.224;22.506;2023-02-15T06:55:42;100.43;;;27.15;;
62401;SDS011;48440;51.224;22.506;2023-02-15T06:58:07;93.72;;;26.90;;
62401;SDS011;48440;51.224;22.506;2023-02-15T07:00:33;91.30;;;26.80;;
62401;SDS011;48440;51.224;22.506;2023-02-15T07:02:58;89.18;;;26.50;;
62401;SDS011;48440;51.224;22.506;2023-02-15T07:05:24;90.03;;;27.85;;
62401;SDS011;48440;51.224;22.506;2023-02-15T07:07:56;90.07;;;26.40;;
62401;SDS011;48440;51.224;22.506;2023-02-15T07:10:22;86.50;;;26.42;;
62401;SDS011;48440;51.224;22.506;2023-02-15T07:12:48;86.18;;;26.35;;
62401;SDS011;48440;51.224;22.506;2023-02-15T07:15:19;90.45;;;26.60;;
62401;SDS011;48440;51.224;22.506;2023-02-15T07:17:46;88.32;;;26.65;;
62401;SDS011;48440;51.224;22.506;2023-02-15T07:20:13;83.57;;;26.60;;
62401;SDS011;48440;51.224;22.506;2023-02-15T07:22:40;91.85;;;26.80;;
62401;SDS011;48440;51.224;22.506;2023-02-15T07:25:06;82.70;;;25.10;;
62401;SDS011;48440;51.224;22.506;2023-02-15T07:27:34;88.15;;;24.58;;
62401;SDS011;48440;51.224;22.506;2023-02-15T07:29:59;81.05;;;24.30;;
62401;SDS011;48440;51.224;22.506;2023-02-15T07:32:29;89.15;;;26.45;;
62401;SDS011;48440;51.224;22.506;2023-02-15T07:34:56;87.88;;;24.17;;
62401;SDS011;48440;51.224;22.506;2023-02-15T07:37:21;80.05;;;25.27;;
62401;SDS011;48440;51.224;22.506;2023-02-15T07:39:47;82.95;;;23.63;;
62401;SDS011;48440;51.224;22.506;2023-02-15T07:42:12;72.18;;;22.92;;
62401;SDS011;48440;51.224;22.506;2023-02-15T07:44:38;86.13;;;26.30;;
62401;SDS011;48440;51.224;22.506;2023-02-15T07:47:04;82.05;;;24.50;;
62401;SDS011;48440;51.224;22.506;2023-02-15T07:49:29;83.95;;;25.58;;
62401;SDS011;48440;51.224;22.506;2023-02-15T07:51:54;87.40;;;26.67;;
62401;SDS011;48440;51.224;22.506;2023-02-15T07:54:20;81.88;;;24.50;;
62401;SDS011;48440;51.224;22.506;2023-02-15T07:56:45;71.53;;;23.38;;
62401;SDS011;48440;51.224;22.506;2023-02-15T07:59:11;66.85;;;23.05;;
62401;SDS011;48440;51.224;22.506;2023-02-15T08:01:37;61.35;;;19.35;;
62401;SDS011;48440;51.224;22.506;2023-02-15T08:04:04;77.38;;;23.35;;
62401;SDS011;48440;51.224;22.506;2023-02-15T08:06:32;70.20;;;22.73;;
62401;SDS011;48440;51.224;22.506;2023-02-15T08:08:59;76.97;;;24.38;;
62401;SDS011;48440;51.224;22.506;2023-02-15T08:11:35;78.18;;;25.35;;
62401;SDS011;48440;51.224;22.506;2023-02-15T08:14:07;81.45;;;24.63;;
62401;SDS011;48440;51.224;22.506;2023-02-15T08:19:41;93.45;;;27.80;;
62401;SDS011;48440;51.224;22.506;2023-02-15T08:22:05;93.13;;;27.48;;
62401;SDS011;48440;51.224;22.506;2023-02-15T08:24:32;92.40;;;27.90;;
62401;SDS011;48440;51.224;22.506;2023-02-15T08:26:59;88.15;;;28.08;;
62401;SDS011;48440;51.224;22.506;2023-02-15T08:29:28;91.10;;;28.05;;
62401;SDS011;48440;51.224;22.506;2023-02-15T08:31:58;91.32;;;27.15;;
62401;SDS011;48440;51.224;22.506;2023-02-15T08:34:30;90.13;;;27.75;;
62401;SDS011;48440;51.224;22.506;2023-02-15T08:36:57;92.13;;;28.58;;
62401;SDS011;48440;51.224;22.506;2023-02-15T08:39:22;92.22;;;29.42;;
62401;SDS011;48440;51.224;22.506;2023-02-15T08:41:48;94.53;;;28.02;;
62401;SDS011;48440;51.224;22.506;2023-02-15T08:44:14;93.97;;;28.52;;
62401;SDS011;48440;51.224;22.506;2023-02-15T08:46:42;106.88;;;28.05;;
62401;SDS011;48440;51.224;22.506;2023-02-15T08:49:09;93.68;;;29.38;;
62401;SDS011;48440;51.224;22.506;2023-02-15T08:51:37;96.85;;;28.48;;
62401;SDS011;48440;51.224;22.506;2023-02-15T08:54:04;92.80;;;27.52;;
62401;SDS011;48440;51.224;22.506;2023-02-15T08:56:32;91.55;;;28.45;;
62401;SDS011;48440;51.224;22.506;2023-02-15T08:58:59;93.30;;;29.33;;
62401;SDS011;48440;51.224;22.506;2023-02-15T09:01:26;101.78;;;31.92;;
62401;SDS011;48440;51.224;22.506;2023-02-15T09:03:57;96.00;;;27.85;;
62401;SDS011;48440;51.224;22.506;2023-02-15T09:06:24;92.00;;;27.88;;
62401;SDS011;48440;51.224;22.506;2023-02-15T09:08:50;89.95;;;29.17;;
62401;SDS011;48440;51.224;22.506;2023-02-15T09:11:20;98.43;;;27.83;;
62401;SDS011;48440;51.224;22.506;2023-02-15T09:16:25;94.07;;;27.52;;
62401;SDS011;48440;51.224;22.506;2023-02-15T09:18:52;85.20;;;26.17;;
62401;SDS011;48440;51.224;22.506;2023-02-15T09:21:20;87.07;;;27.23;;
62401;SDS011;48440;51.224;22.506;2023-02-15T09:23:47;104.97;;;28.58;;
62401;SDS011;48440;51.224;22.506;2023-02-15T09:26:15;92.60;;;27.33;;
62401;SDS011;48440;51.224;22.506;2023-02-15T09:28:42;79.50;;;24.30;;
62401;SDS011;48440;51.224;22.506;2023-02-15T09:31:18;93.07;;;27.27;;
62401;SDS011;48440;51.224;22.506;2023-02-15T09:33:46;91.28;;;27.13;;
62401;SDS011;48440;51.224;22.506;2023-02-15T09:36:16;87.93;;;26.02;;
62401;SDS011;48440;51.224;22.506;2023-02-15T09:38:44;86.40;;;26.42;;
62401;SDS011;48440;51.224;22.506;2023-02-15T10:00:52;76.65;;;25.17;;
62401;SDS011;48440;51.224;22.506;2023-02-15T10:11:17;74.95;;;23.95;;
62401;SDS011;48440;51.224;22.506;2023-02-15T10:14:10;72.25;;;21.90;;
62401;SDS011;48440;51.224;22.506;2023-02-15T10:28:09;63.83;;;21.92;;
62401;SDS011;48440;51.224;22.506;2023-02-15T10:30:53;67.45;;;22.17;;
62401;SDS011;48440;51.224;22.506;2023-02-15T11:00:18;64.13;;;23.65;;
62401;SDS011;48440;51.224;22.506;2023-02-15T11:02:59;67.53;;;23.25;;
62401;SDS011;48440;51.224;22.506;2023-02-15T11:08:16;66.80;;;23.83;;
62401;SDS011;48440;51.224;22.506;2023-02-15T11:10:54;64.55;;;22.63;;
62401;SDS011;48440;51.224;22.506;2023-02-15T11:13:26;70.85;;;24.20;;
62401;SDS011;48440;51.224;22.506;2023-02-15T11:16:03;67.72;;;24.35;;
62401;SDS011;48440;51.224;22.506;2023-02-15T11:18:38;59.63;;;22.10;;
62401;SDS011;48440;51.224;22.506;2023-02-15T11:21:10;59.58;;;22.15;;
62401;SDS011;48440;51.224;22.506;2023-02-15T11:23:40;59.97;;;24.10;;
62401;SDS011;48440;51.224;22.506;2023-02-15T11:26:17;62.50;;;22.52;;
62401;SDS011;48440;51.224;22.506;2023-02-15T11:28:48;62.42;;;23.10;;
62401;SDS011;48440;51.224;22.506;2023-02-15T11:31:19;62.20;;;22.70;;
62401;SDS011;48440;51.224;22.506;2023-02-15T11:34:12;63.30;;;23.02;;
62401;SDS011;48440;51.224;22.506;2023-02-15T11:36:40;63.15;;;23.27;;
62401;SDS011;48440;51.224;22.506;2023-02-15T11:39:12;64.13;;;24.95;;
62401;SDS011;48440;51.224;22.506;2023-02-15T11:41:41;61.67;;;21.88;;
62401;SDS011;48440;51.224;22.506;2023-02-15T11:44:16;60.33;;;23.17;;
62401;SDS011;48440;51.224;22.506;2023-02-15T11:46:48;56.92;;;22.42;;
62401;SDS011;48440;51.224;22.506;2023-02-15T11:49:33;59.10;;;23.65;;
62401;SDS011;48440;51.224;22.506;2023-02-15T11:52:06;51.35;;;20.92;;
62401;SDS011;48440;51.224;22.506;2023-02-15T11:54:36;55.63;;;21.00;;
62401;SDS011;48440;51.224;22.506;2023-02-15T11:59:52;61.45;;;22.77;;
62401;SDS011;48440;51.224;22.506;2023-02-15T12:02:22;51.85;;;19.98;;
62401;SDS011;48440;51.224;22.506;2023-02-15T12:04:55;52.00;;;21.80;;
62401;SDS011;48440;51.224;22.506;2023-02-15T12:07:28;54.90;;;22.42;;
62401;SDS011;48440;51.224;22.506;2023-02-15T12:10:22;50.65;;;21.48;;
62401;SDS011;48440;51.224;22.506;2023-02-15T12:13:08;51.08;;;20.85;;
62401;SDS011;48440;51.224;22.506;2023-02-15T12:15:42;56.38;;;21.23;;
62401;SDS011;48440;51.224;22.506;2023-02-15T12:23:52;59.85;;;21.42;;
62401;SDS011;48440;51.224;22.506;2023-02-15T12:26:32;55.33;;;22.15;;
62401;SDS011;48440;51.224;22.506;2023-02-15T12:29:15;56.50;;;21.48;;
62401;SDS011;48440;51.224;22.506;2023-02-15T12:31:46;48.38;;;19.80;;
62401;SDS011;48440;51.224;22.506;2023-02-15T12:34:19;50.13;;;21.25;;
62401;SDS011;48440;51.224;22.506;2023-02-15T12:36:51;53.33;;;22.25;;
62401;SDS011;48440;51.224;22.506;2023-02-15T12:39:24;55.53;;;21.08;;
62401;SDS011;48440;51.224;22.506;2023-02-15T12:44:25;54.22;;;22.77;;
62401;SDS011;48440;51.224;22.506;2023-02-15T12:53:11;52.10;;;21.45;;
62401;SDS011;48440;51.224;22.506;2023-02-15T12:55:37;54.15;;;21.88;;
62401;SDS011;48440;51.224;22.506;2023-02-15T12:58:17;52.38;;;21.60;;
62401;SDS011;48440;51.224;22.506;2023-02-15T13:00:50;65.03;;;23.05;;
62401;SDS011;48440;51.224;22.506;2023-02-15T13:06:23;56.20;;;22.05;;
62401;SDS011;48440;51.224;22.506;2023-02-15T13:08:50;59.47;;;22.60;;
62401;SDS011;48440;51.224;22.506;2023-02-15T13:11:28;54.45;;;22.35;;
62401;SDS011;48440;51.224;22.506;2023-02-15T13:14:00;56.88;;;22.75;;
62401;SDS011;48440;51.224;22.506;2023-02-15T13:16:34;57.28;;;22.27;;
62401;SDS011;48440;51.224;22.506;2023-02-15T13:19:04;55.08;;;22.85;;
62401;SDS011;48440;51.224;22.506;2023-02-15T13:21:37;56.00;;;22.48;;
62401;SDS011;48440;51.224;22.506;2023-02-15T13:24:10;51.45;;;21.60;;
62401;SDS011;48440;51.224;22.506;2023-02-15T13:26:44;57.47;;;22.98;;
62401;SDS011;48440;51.224;22.506;2023-02-15T13:29:15;52.50;;;21.58;;
62401;SDS011;48440;51.224;22.506;2023-02-15T13:31:46;54.70;;;22.30;;
62401;SDS011;48440;51.224;22.506;2023-02-15T13:47:47;53.38;;;21.38;;
62401;SDS011;48440;51.224;22.506;2023-02-15T13:50:26;57.25;;;21.65;;
62401;SDS011;48440;51.224;22.506;2023-02-15T13:53:02;52.03;;;20.42;;
62401;SDS011;48440;51.224;22.506;2023-02-15T13:58:33;57.15;;;21.90;;
62401;SDS011;48440;51.224;22.506;2023-02-15T14:29:20;55.58;;;21.95;;
62401;SDS011;48440;51.224;22.506;2023-02-15T14:32:09;63.15;;;23.35;;
62401;SDS011;48440;51.224;22.506;2023-02-15T14:37:19;75.20;;;27.35;;
62401;SDS011;48440;51.224;22.506;2023-02-15T14:39:59;56.40;;;23.05;;
62401;SDS011;48440;51.224;22.506;2023-02-15T14:43:07;53.53;;;21.85;;
62401;SDS011;48440;51.224;22.506;2023-02-15T14:45:48;54.17;;;21.30;;
62401;SDS011;48440;51.224;22.506;2023-02-15T14:48:25;52.97;;;20.10;;
62401;SDS011;48440;51.224;22.506;2023-02-15T14:50:55;49.88;;;21.77;;
62401;SDS011;48440;51.224;22.506;2023-02-15T14:53:37;57.22;;;22.30;;
62401;SDS011;48440;51.224;22.506;2023-02-15T14:58:41;45.20;;;20.02;;
62401;SDS011;48440;51.224;22.506;2023-02-15T15:01:33;51.28;;;20.70;;
62401;SDS011;48440;51.224;22.506;2023-02-15T15:04:21;52.60;;;20.67;;
62401;SDS011;48440;51.224;22.506;2023-02-15T15:09:33;48.95;;;21.42;;
62401;SDS011;48440;51.224;22.506;2023-02-15T15:14:48;53.78;;;20.98;;
62401;SDS011;48440;51.224;22.506;2023-02-15T15:30:58;52.50;;;21.52;;
62401;SDS011;48440;51.224;22.506;2023-02-15T15:49:44;57.05;;;22.63;;
62401;SDS011;48440;51.224;22.506;2023-02-15T15:52:19;51.75;;;22.05;;
62401;SDS011;48440;51.224;22.506;2023-02-15T15:54:47;66.45;;;23.30;;
62401;SDS011;48440;51.224;22.506;2023-02-15T15:57:32;53.63;;;20.98;;
62401;SDS011;48440;51.224;22.506;2023-02-15T15:59:59;50.72;;;20.67;;
62401;SDS011;48440;51.224;22.506;2023-02-15T16:02:27;54.95;;;22.35;;
62401;SDS011;48440;51.224;22.506;2023-02-15T16:04:52;46.47;;;20.27;;
62401;SDS011;48440;51.224;22.506;2023-02-15T16:09:57;53.35;;;20.83;;
62401;SDS011;48440;51.224;22.506;2023-02-15T16:12:25;47.35;;;20.05;;
62401;SDS011;48440;51.224;22.506;2023-02-15T16:14:53;48.60;;;20.40;;
62401;SDS011;48440;51.224;22.506;2023-02-15T16:17:21;56.88;;;21.17;;
62401;SDS011;48440;51.224;22.506;2023-02-15T16:19:50;53.17;;;21.80;;
62401;SDS011;48440;51.224;22.506;2023-02-15T16:22:24;48.45;;;21.13;;
62401;SDS011;48440;51.224;22.506;2023-02-15T16:27:41;51.90;;;20.75;;
62401;SDS011;48440;51.224;22.506;2023-02-15T16:30:21;55.75;;;21.40;;
62401;SDS011;48440;51.224;22.506;2023-02-15T16:32:52;47.72;;;20.30;;
62401;SDS011;48440;51.224;22.506;2023-02-15T16:35:29;54.85;;;21.33;;
62401;SDS011;48440;51.224;22.506;2023-02-15T16:37:55;55.65;;;22.20;;
62401;SDS011;48440;51.224;22.506;2023-02-15T16:42:50;49.55;;;20.52;;
62401;SDS011;48440;51.224;22.506;2023-02-15T16:45:19;47.55;;;21.75;;
62401;SDS011;48440;51.224;22.506;2023-02-15T16:47:49;53.80;;;21.45;;
62401;SDS011;48440;51.224;22.506;2023-02-15T16:50:20;56.88;;;22.75;;
62401;SDS011;48440;51.224;22.506;2023-02-15T16:52:48;54.60;;;23.45;;
62401;SDS011;48440;51.224;22.506;2023-02-15T16:55:25;46.95;;;21.98;;
62401;SDS011;48440;51.224;22.506;2023-02-15T16:57:56;51.22;;;21.90;;
62401;SDS011;48440;51.224;22.506;2023-02-15T17:00:28;53.78;;;21.70;;
62401;SDS011;48440;51.224;22.506;2023-02-15T17:10:40;53.92;;;21.58;;
62401;SDS011;48440;51.224;22.506;2023-02-15T17:13:10;54.65;;;22.45;;
62401;SDS011;48440;51.224;22.506;2023-02-15T17:15:41;61.33;;;25.80;;
62401;SDS011;48440;51.224;22.506;2023-02-15T17:20:43;64.28;;;25.67;;
62401;SDS011;48440;51.224;22.506;2023-02-15T17:23:22;60.20;;;23.77;;
62401;SDS011;48440;51.224;22.506;2023-02-15T17:25:53;51.25;;;22.08;;
62401;SDS011;48440;51.224;22.506;2023-02-15T17:28:27;63.92;;;24.85;;
62401;SDS011;48440;51.224;22.506;2023-02-15T17:30:55;64.30;;;24.83;;
62401;SDS011;48440;51.224;22.506;2023-02-15T17:33:25;62.33;;;24.25;;
62401;SDS011;48440;51.224;22.506;2023-02-15T17:36:11;59.67;;;25.10;;
62401;SDS011;48440;51.224;22.506;2023-02-15T17:38:58;64.80;;;24.85;;
62401;SDS011;48440;51.224;22.506;2023-02-15T17:41:28;59.30;;;24.70;;
62401;SDS011;48440;51.224;22.506;2023-02-15T17:43:55;70.53;;;27.15;;
62401;SDS011;48440;51.224;22.506;2023-02-15T17:46:21;65.88;;;25.48;;
62401;SDS011;48440;51.224;22.506;2023-02-15T17:48:48;73.15;;;28.30;;
62401;SDS011;48440;51.224;22.506;2023-02-15T17:51:18;68.30;;;27.20;;
62401;SDS011;48440;51.224;22.506;2023-02-15T17:53:45;81.88;;;30.42;;
62401;SDS011;48440;51.224;22.506;2023-02-15T17:56:34;70.22;;;27.73;;
62401;SDS011;48440;51.224;22.506;2023-02-15T17:59:00;79.57;;;31.20;;
62401;SDS011;48440;51.224;22.506;2023-02-15T18:01:32;78.35;;;29.33;;
62401;SDS011;48440;51.224;22.506;2023-02-15T18:04:18;77.03;;;30.33;;
62401;SDS011;48440;51.224;22.506;2023-02-15T18:07:02;66.53;;;28.13;;
62401;SDS011;48440;51.224;22.506;2023-02-15T18:09:46;75.93;;;29.83;;
62401;SDS011;48440;51.224;22.506;2023-02-15T18:14:57;84.88;;;31.50;;
62401;SDS011;48440;51.224;22.506;2023-02-15T18:17:33;98.05;;;34.13;;
62401;SDS011;48440;51.224;22.506;2023-02-15T18:20:02;106.32;;;36.08;;
62401;SDS011;48440;51.224;22.506;2023-02-15T18:22:31;113.22;;;41.75;;
62401;SDS011;48440;51.224;22.506;2023-02-15T18:24:57;104.43;;;38.97;;